createdAt,value
2022-10-05T00:02:26.272Z,99026.91
2022-10-05T00:04:55.585Z,99020.63
2022-10-05T00:07:24.317Z,99011.63
2022-10-05T00:09:59.075Z,99023.75
2022-10-05T00:12:28.208Z,99020.94
2022-10-05T00:15:00.907Z,99014.13
2022-10-05T00:17:30.143Z,99014.75
2022-10-05T00:19:57.005Z,99007.22
2022-10-05T00:22:31.884Z,99008.50
2022-10-05T00:25:01.945Z,99002.38
2022-10-05T00:27:36.124Z,98997.41
2022-10-05T00:30:13.357Z,98989.34
2022-10-05T00:32:39.938Z,98985.66
2022-10-05T00:35:07.001Z,98986.38
2022-10-05T00:37:33.681Z,98972.28
2022-10-05T00:40:00.325Z,98968.94
2022-10-05T00:42:51.862Z,98962.50
2022-10-05T00:45:27.358Z,98958.63
2022-10-05T00:48:12.535Z,98956.16
2022-10-05T00:51:02.972Z,98955.28
2022-10-05T00:54:02.264Z,98955.28
2022-10-05T00:56:53.258Z,98957.09
2022-10-05T00:59:25.692Z,98970.28
2022-10-05T01:02:18.435Z,98961.91
2022-10-05T01:04:55.899Z,98966.50
2022-10-05T01:07:53.216Z,98967.91
2022-10-05T01:10:28.912Z,98967.31
2022-10-05T01:13:08.701Z,98971.50
2022-10-05T01:15:51.640Z,98973.31
2022-10-05T01:18:56.453Z,98964.69
2022-10-05T01:21:25.879Z,98967.81
2022-10-05T01:24:16.882Z,98966.97
2022-10-05T01:27:11.491Z,98975.44
2022-10-05T01:30:02.735Z,98980.53
2022-10-05T01:32:42.921Z,98984.66
2022-10-05T01:35:30.311Z,98984.53
2022-10-05T01:38:11.894Z,98985.94
2022-10-05T01:41:22.853Z,98979.44
2022-10-05T01:44:06.491Z,98985.63
2022-10-05T01:46:43.769Z,98983.97
2022-10-05T01:49:46.201Z,98984.09
2022-10-05T01:52:32.164Z,98987.66
2022-10-05T01:55:14.137Z,98982.06
2022-10-05T01:57:54.176Z,98975.75
2022-10-05T02:00:20.993Z,98971.41
2022-10-05T02:02:52.397Z,98970.72
2022-10-05T02:05:27.773Z,98968.66
2022-10-05T02:08:01.723Z,98970.09
2022-10-05T02:10:37.044Z,98958.91
2022-10-05T02:13:15.506Z,98960.91
2022-10-05T02:15:52.861Z,98943.22
2022-10-05T02:18:31.501Z,98943.34
2022-10-05T02:21:02.224Z,98950.09
2022-10-05T02:23:33.580Z,98946.72
2022-10-05T02:26:01.409Z,98940.69
2022-10-05T02:28:44.025Z,98939.19
2022-10-05T02:31:14.096Z,98943.13
2022-10-05T02:33:40.658Z,98936.28
2022-10-05T02:36:17.074Z,98932.47
2022-10-05T02:38:48.821Z,98931.16
2022-10-05T02:41:34.042Z,98927.75
2022-10-05T02:44:24.283Z,98919.06
2022-10-05T02:47:05.107Z,98924.16
2022-10-05T02:49:44.884Z,98920.69
2022-10-05T02:52:26.789Z,98909.19
2022-10-05T02:55:13.653Z,98907.56
2022-10-05T02:57:45.672Z,98899.53
2022-10-05T03:00:18.070Z,98900.69
2022-10-05T03:03:08.370Z,98896.06
2022-10-05T03:05:47.034Z,98900.00
2022-10-05T03:08:24.917Z,98895.59
2022-10-05T03:11:04.343Z,98899.03
2022-10-05T03:13:36.848Z,98898.19
2022-10-05T03:16:26.559Z,98903.09
2022-10-05T03:18:59.159Z,98901.47
2022-10-05T03:21:46.042Z,98896.53
2022-10-05T03:24:31.538Z,98895.84
2022-10-05T03:27:09.801Z,98899.44
2022-10-05T03:29:47.506Z,98898.72
2022-10-05T03:32:47.699Z,98902.13
2022-10-05T03:35:34.789Z,98905.25
2022-10-05T03:38:19.487Z,98903.91
2022-10-05T03:40:47.000Z,98908.00
2022-10-05T03:43:34.281Z,98907.59
2022-10-05T03:46:11.800Z,98911.53
2022-10-05T03:48:56.663Z,98913.44
2022-10-05T03:51:31.202Z,98913.97
2022-10-05T03:54:09.988Z,98917.59
2022-10-05T03:56:46.185Z,98913.88
2022-10-05T03:59:20.608Z,98913.34
2022-10-05T04:02:01.318Z,98911.28
2022-10-05T04:04:37.293Z,98914.38
2022-10-05T04:07:06.206Z,98912.22
2022-10-05T04:09:37.371Z,98917.22
2022-10-05T04:12:19.718Z,98915.44
2022-10-05T04:14:51.050Z,98915.00
2022-10-05T04:17:27.603Z,98920.19
2022-10-05T04:20:06.167Z,98910.31
2022-10-05T04:22:46.048Z,98915.31
2022-10-05T04:25:22.658Z,98922.81
2022-10-05T04:28:16.038Z,98919.69
2022-10-05T04:30:46.985Z,98913.91
2022-10-05T04:33:15.884Z,98912.88
2022-10-05T04:36:02.795Z,98914.34
2022-10-05T04:38:35.408Z,98909.03
2022-10-05T04:41:30.326Z,98908.78
2022-10-05T04:44:10.252Z,98912.38
2022-10-05T04:46:47.087Z,98907.53
2022-10-05T04:49:35.146Z,98913.63
2022-10-05T04:52:32.788Z,98906.69
2022-10-05T04:55:27.322Z,98917.63
2022-10-05T04:58:17.076Z,98925.66
2022-10-05T05:01:12.347Z,98925.56
2022-10-05T05:03:58.035Z,98921.41
2022-10-05T05:06:37.642Z,98919.78
2022-10-05T05:09:21.238Z,98917.91
2022-10-05T05:12:18.446Z,98919.66
2022-10-05T05:15:22.533Z,98923.16
2022-10-05T05:18:17.125Z,98923.44
2022-10-05T05:20:57.126Z,98919.56
2022-10-05T05:23:44.294Z,98921.13
2022-10-05T05:26:29.489Z,98925.47
2022-10-05T05:29:02.144Z,98926.41
2022-10-05T05:31:48.205Z,98931.28
2022-10-05T05:34:36.930Z,98940.72
2022-10-05T05:37:51.298Z,98938.91
2022-10-05T05:40:17.759Z,98939.72
2022-10-05T05:43:06.636Z,98940.91
2022-10-05T05:45:56.629Z,98942.59
2022-10-05T05:48:37.894Z,98950.50
2022-10-05T05:51:10.750Z,98945.50
2022-10-05T05:53:45.418Z,98947.09
2022-10-05T05:56:20.931Z,98946.19
2022-10-05T05:59:15.754Z,98950.19
2022-10-05T06:01:47.729Z,98948.91
2022-10-05T06:04:41.293Z,98949.31
2022-10-05T06:07:16.123Z,98949.31
2022-10-05T06:09:53.875Z,98946.59
2022-10-05T06:12:30.218Z,98943.78
2022-10-05T06:15:26.354Z,98949.66
2022-10-05T06:17:56.327Z,98945.63
2022-10-05T06:20:38.191Z,98950.53
2022-10-05T06:23:14.228Z,98955.00
2022-10-05T06:26:14.785Z,98949.00
2022-10-05T06:28:43.210Z,98949.69
2022-10-05T06:31:29.858Z,98955.13
2022-10-05T06:34:19.829Z,98951.16
2022-10-05T06:36:55.714Z,98957.41
2022-10-05T06:40:02.152Z,98962.78
2022-10-05T06:42:50.906Z,98963.28
2022-10-05T06:46:00.085Z,98961.25
2022-10-05T06:49:14.229Z,98957.34
2022-10-05T06:52:08.198Z,98955.97
2022-10-05T06:54:48.674Z,98957.00
2022-10-05T06:57:31.042Z,98955.88
2022-10-05T07:00:02.610Z,98962.94
2022-10-05T07:02:45.257Z,98958.84
2022-10-05T07:05:40.509Z,98961.94
2022-10-05T07:08:19.966Z,98955.41
2022-10-05T07:10:52.626Z,98950.56
2022-10-05T07:13:31.397Z,98961.91
2022-10-05T07:16:45.452Z,98961.53
2022-10-05T07:19:37.668Z,98952.47
2022-10-05T07:22:34.078Z,98947.97
2022-10-05T07:25:13.234Z,98953.72
2022-10-05T07:28:05.297Z,98961.22
2022-10-05T07:31:00.486Z,98956.91
2022-10-05T07:33:45.868Z,98962.38
2022-10-05T07:36:37.198Z,98957.81
2022-10-05T07:39:23.526Z,98956.75
2022-10-05T07:42:03.270Z,98961.13
2022-10-05T07:44:41.457Z,98965.19
2022-10-05T07:47:22.360Z,98967.75
2022-10-05T07:49:59.627Z,98978.00
2022-10-05T07:52:42.055Z,98970.59
2022-10-05T07:55:25.187Z,98965.41
2022-10-05T07:58:13.928Z,98967.44
2022-10-05T08:01:03.697Z,98982.94
2022-10-05T08:03:43.583Z,98977.13
2022-10-05T08:06:46.233Z,98980.31
2022-10-05T08:09:37.155Z,98973.25
2022-10-05T08:12:09.512Z,98979.22
2022-10-05T08:14:54.654Z,98973.47
2022-10-05T08:17:40.916Z,98975.41
2022-10-05T08:20:18.696Z,98973.56
2022-10-05T08:22:57.034Z,98972.09
2022-10-05T08:25:47.761Z,98972.59
2022-10-05T08:28:34.123Z,98966.66
2022-10-05T08:31:24.883Z,98962.34
2022-10-05T08:34:04.708Z,98961.03
2022-10-05T08:36:40.140Z,98955.75
2022-10-05T08:39:16.027Z,98960.69
2022-10-05T08:42:03.585Z,98962.66
2022-10-05T08:44:45.262Z,98961.69
2022-10-05T08:47:40.207Z,98953.59
2022-10-05T08:50:35.837Z,98954.34
2022-10-05T08:53:18.184Z,98963.28
2022-10-05T08:56:19.715Z,98965.59
2022-10-05T08:59:16.609Z,98965.28
2022-10-05T09:02:03.962Z,98963.22
2022-10-05T09:04:42.630Z,98958.31
2022-10-05T09:07:28.375Z,98961.38
2022-10-05T09:10:25.141Z,98964.84
2022-10-05T09:13:25.628Z,98966.94
2022-10-05T09:16:21.308Z,98969.00
2022-10-05T09:19:17.579Z,98962.88
2022-10-05T09:22:21.422Z,98968.13
2022-10-05T09:24:53.685Z,98970.47
2022-10-05T09:27:43.325Z,98964.13
2022-10-05T09:30:20.584Z,98974.16
2022-10-05T09:33:08.577Z,98961.09
2022-10-05T09:35:53.718Z,98954.56
2022-10-05T09:38:51.487Z,98959.91
2022-10-05T09:41:44.226Z,98961.91
2022-10-05T09:44:11.000Z,98954.53
2022-10-05T09:47:19.194Z,98957.75
2022-10-05T09:49:57.638Z,98946.16
2022-10-05T09:53:01.851Z,98950.44
2022-10-05T09:55:47.108Z,98949.56
2022-10-05T09:58:33.323Z,98951.19
2022-10-05T10:01:09.586Z,98952.56
2022-10-05T10:04:13.546Z,98943.47
2022-10-05T10:07:04.923Z,98936.75
2022-10-05T10:09:59.755Z,98930.63
2022-10-05T10:12:50.003Z,98936.53
2022-10-05T10:15:40.340Z,98937.72
2022-10-05T10:18:27.735Z,98929.34
2022-10-05T10:21:33.604Z,98925.31
2022-10-05T10:24:14.055Z,98932.41
2022-10-05T10:27:08.296Z,98916.81
2022-10-05T10:29:57.429Z,98919.44
2022-10-05T10:32:42.409Z,98920.78
2022-10-05T10:35:11.927Z,98923.59
2022-10-05T10:38:12.923Z,98917.59
2022-10-05T10:41:06.600Z,98909.97
2022-10-05T10:43:55.347Z,98907.66
2022-10-05T10:46:59.559Z,98907.09
2022-10-05T10:49:31.806Z,98900.13
2022-10-05T10:52:17.013Z,98913.72
2022-10-05T10:55:05.483Z,98902.09
2022-10-05T10:57:44.143Z,98904.06
2022-10-05T11:00:17.420Z,98910.22
2022-10-05T11:03:05.063Z,98895.47
2022-10-05T11:05:48.793Z,98902.09
2022-10-05T11:08:16.045Z,98902.09
2022-10-05T11:11:13.495Z,98895.56
2022-10-05T11:14:27.651Z,98896.72
2022-10-05T11:17:18.469Z,98899.97
2022-10-05T11:20:02.953Z,98886.84
2022-10-05T11:22:50.598Z,98899.41
2022-10-05T11:25:27.717Z,98886.47
2022-10-05T11:28:10.526Z,98892.25
2022-10-05T11:31:04.955Z,98881.16
2022-10-05T11:34:09.836Z,98882.44
2022-10-05T11:37:13.728Z,98867.81
2022-10-05T11:39:44.412Z,98867.25
2022-10-05T11:42:20.255Z,98863.19
2022-10-05T11:45:15.695Z,98855.00
2022-10-05T11:47:45.530Z,98857.78
2022-10-05T11:50:26.840Z,98853.25
2022-10-05T11:53:14.468Z,98849.75
2022-10-05T11:55:43.930Z,98844.09
2022-10-05T11:58:23.296Z,98839.81
2022-10-05T12:00:56.536Z,98836.22
2022-10-05T12:03:49.595Z,98826.44
2022-10-05T12:06:34.138Z,98819.00
2022-10-05T12:09:04.731Z,98818.03
2022-10-05T12:11:57.682Z,98816.03
2022-10-05T12:14:30.112Z,98814.91
2022-10-05T12:17:02.813Z,98805.19
2022-10-05T12:19:36.555Z,98800.97
2022-10-05T12:22:04.088Z,98803.56
2022-10-05T12:24:36.833Z,98804.97
2022-10-05T12:27:14.129Z,98794.00
2022-10-05T12:29:44.236Z,98797.88
2022-10-05T12:32:21.221Z,98782.72
2022-10-05T12:34:50.651Z,98797.94
2022-10-05T12:37:52.818Z,98788.03
2022-10-05T12:40:36.017Z,98787.22
2022-10-05T12:43:21.401Z,98776.84
2022-10-05T12:45:58.912Z,98782.53
2022-10-05T12:48:39.341Z,98774.50
2022-10-05T12:51:05.864Z,98759.09
2022-10-05T12:53:48.289Z,98764.44
2022-10-05T12:56:30.831Z,98756.69
2022-10-05T12:59:31.253Z,98756.44
2022-10-05T13:02:06.094Z,98758.13
2022-10-05T13:04:58.216Z,98756.78
2022-10-05T13:07:56.752Z,98759.47
2022-10-05T13:10:35.910Z,98759.03
2022-10-05T13:13:35.753Z,98751.97
2022-10-05T13:16:17.853Z,98751.09
2022-10-05T13:19:12.308Z,98754.22
2022-10-05T13:22:10.941Z,98748.13
2022-10-05T13:25:00.823Z,98746.56
2022-10-05T13:27:31.775Z,98752.31
2022-10-05T13:30:17.087Z,98740.44
2022-10-05T13:32:48.030Z,98738.56
2022-10-05T13:35:38.627Z,98737.22
2022-10-05T13:38:15.071Z,98734.56
2022-10-05T13:40:53.761Z,98729.94
2022-10-05T13:44:05.789Z,98725.94
2022-10-05T13:46:49.969Z,98725.84
2022-10-05T13:49:27.055Z,98731.00
2022-10-05T13:52:19.875Z,98737.81
2022-10-05T13:55:14.267Z,98741.50
2022-10-05T13:58:06.042Z,98741.38
2022-10-05T14:00:43.672Z,98736.13
2022-10-05T14:03:34.961Z,98735.28
2022-10-05T14:06:10.785Z,98734.97
2022-10-05T14:08:51.322Z,98738.53
2022-10-05T14:11:23.857Z,98732.31
2022-10-05T14:13:52.102Z,98727.44
2022-10-05T14:16:22.326Z,98725.84
2022-10-05T14:18:58.542Z,98721.53
2022-10-05T14:21:30.112Z,98726.41
2022-10-05T14:24:42.351Z,98728.72
2022-10-05T14:27:23.925Z,98730.38
2022-10-05T14:30:08.546Z,98730.88
2022-10-05T14:33:07.215Z,98723.81
2022-10-05T14:35:51.716Z,98727.00
2022-10-05T14:38:35.181Z,98724.28
2022-10-05T14:41:07.923Z,98717.28
2022-10-05T14:43:35.356Z,98709.97
2022-10-05T14:46:27.241Z,98712.50
2022-10-05T14:49:13.225Z,98708.84
2022-10-05T14:51:42.147Z,98694.84
2022-10-05T14:54:52.282Z,98694.59
2022-10-05T14:57:34.107Z,98707.75
2022-10-05T15:00:04.016Z,98692.72
2022-10-05T15:03:04.277Z,98683.00
2022-10-05T15:05:44.993Z,98698.81
2022-10-05T15:08:11.431Z,98693.94
2022-10-05T15:11:08.947Z,98698.94
2022-10-05T15:13:42.429Z,98689.47
2022-10-05T15:16:19.926Z,98686.53
2022-10-05T15:19:21.174Z,98697.47
2022-10-05T15:22:41.236Z,98686.13
2022-10-05T15:25:22.996Z,98679.44
2022-10-05T15:28:08.226Z,98687.13
2022-10-05T15:30:42.914Z,98683.16
2022-10-05T15:33:18.111Z,98688.63
2022-10-05T15:35:44.545Z,98684.56
2022-10-05T15:38:27.110Z,98689.31
2022-10-05T15:41:15.725Z,98688.53
2022-10-05T15:44:15.723Z,98692.94
2022-10-05T15:46:56.767Z,98684.38
2022-10-05T15:49:43.493Z,98692.25
2022-10-05T15:52:27.389Z,98697.06
2022-10-05T15:55:20.269Z,98697.06
2022-10-05T15:57:59.557Z,98695.59
2022-10-05T16:00:27.276Z,98702.94
2022-10-05T16:03:25.242Z,98708.94
2022-10-05T16:06:18.123Z,98710.06
2022-10-05T16:08:58.679Z,98709.91
2022-10-05T16:11:31.168Z,98708.53
2022-10-05T16:15:08.289Z,98720.09
2022-10-05T16:18:06.050Z,98712.41
2022-10-05T16:20:38.482Z,98715.56
2022-10-05T16:23:28.384Z,98711.97
2022-10-05T16:26:19.410Z,98724.53
2022-10-05T16:28:59.884Z,98723.84
2022-10-05T16:31:37.292Z,98725.81
2022-10-05T16:34:17.087Z,98729.53
2022-10-05T16:36:49.074Z,98730.25
2022-10-05T16:39:30.349Z,98734.72
2022-10-05T16:42:06.483Z,98738.91
2022-10-05T16:44:50.984Z,98742.53
2022-10-05T16:47:43.153Z,98740.44
2022-10-05T16:50:20.004Z,98740.59
2022-10-05T16:52:54.986Z,98745.69
2022-10-05T16:55:30.578Z,98759.75
2022-10-05T16:57:59.759Z,98766.28
2022-10-05T17:01:10.612Z,98765.84
2022-10-05T17:03:54.779Z,98771.66
2022-10-05T17:06:54.097Z,98770.06
2022-10-05T17:09:45.948Z,98776.84
2022-10-05T17:12:38.604Z,98778.81
2022-10-05T17:15:30.805Z,98784.38
2022-10-05T17:18:12.061Z,98793.97
2022-10-05T17:20:42.482Z,98792.34
2022-10-05T17:23:31.208Z,98790.94
2022-10-05T17:26:33.128Z,98802.72
2022-10-05T17:29:12.880Z,98794.97
2022-10-05T17:32:18.554Z,98800.84
2022-10-05T17:35:04.797Z,98796.75
2022-10-05T17:37:38.694Z,98806.25
2022-10-05T17:40:30.154Z,98798.94
2022-10-05T17:43:25.606Z,98807.38
2022-10-05T17:45:55.637Z,98811.88
2022-10-05T17:48:42.898Z,98813.38
2022-10-05T17:51:56.662Z,98819.59
2022-10-05T17:54:42.995Z,98833.47
2022-10-05T17:57:09.459Z,98828.78
2022-10-05T17:59:55.621Z,98834.38
2022-10-05T18:02:28.900Z,98829.81
2022-10-05T18:05:12.066Z,98837.22
2022-10-05T18:08:16.309Z,98839.41
2022-10-05T18:11:16.971Z,98839.97
2022-10-05T18:13:49.958Z,98847.84
2022-10-05T18:16:54.184Z,98844.00
2022-10-05T18:19:23.131Z,98853.78
2022-10-05T18:22:06.341Z,98855.47
2022-10-05T18:24:52.969Z,98866.75
2022-10-05T18:27:34.904Z,98856.44
2022-10-05T18:30:31.045Z,98870.19
2022-10-05T18:32:57.497Z,98869.69
2022-10-05T18:35:42.367Z,98875.13
2022-10-05T18:38:21.927Z,98874.81
2022-10-05T18:41:14.403Z,98881.56
2022-10-05T18:44:00.541Z,98878.09
2022-10-05T18:46:44.799Z,98884.56
2022-10-05T18:49:43.700Z,98889.53
2022-10-05T18:52:26.522Z,98884.97
2022-10-05T18:55:32.686Z,98887.38
2022-10-05T18:58:17.845Z,98887.50
2022-10-05T19:01:21.912Z,98894.56
2022-10-05T19:03:54.653Z,98906.31
2022-10-05T19:06:26.570Z,98905.72
2022-10-05T19:09:19.325Z,98910.75
2022-10-05T19:12:14.213Z,98907.22
2022-10-05T19:14:49.136Z,98908.53
2022-10-05T19:17:18.581Z,98914.53
2022-10-05T19:19:54.255Z,98921.03
2022-10-05T19:22:48.742Z,98918.66
2022-10-05T19:25:43.191Z,98926.75
2022-10-05T19:28:20.571Z,98925.44
2022-10-05T19:30:47.067Z,98922.97
2022-10-05T19:33:26.618Z,98931.13
2022-10-05T19:36:06.653Z,98927.34
2022-10-05T19:39:01.885Z,98929.41
2022-10-05T19:41:35.470Z,98943.69
2022-10-05T19:44:24.186Z,98945.78
2022-10-05T19:47:01.633Z,98950.41
2022-10-05T19:49:43.093Z,98962.38
2022-10-05T19:52:13.751Z,98967.69
2022-10-05T19:54:41.748Z,98972.69
2022-10-05T19:57:17.750Z,98976.53
2022-10-05T19:59:48.358Z,98974.69
2022-10-05T20:02:16.865Z,98984.13
2022-10-05T20:04:45.741Z,98986.41
2022-10-05T20:07:15.616Z,98990.72
2022-10-05T20:09:59.794Z,98988.28
2022-10-05T20:12:52.969Z,98990.50
2022-10-05T20:15:53.124Z,98985.81
2022-10-05T20:19:03.658Z,99004.78
2022-10-05T20:21:39.362Z,98999.88
2022-10-05T20:24:10.124Z,99003.16
2022-10-05T20:27:03.572Z,99012.75
2022-10-05T20:29:37.452Z,99026.00
2022-10-05T20:32:15.483Z,99023.75
2022-10-05T20:34:44.381Z,99027.66
2022-10-05T20:37:13.237Z,99031.50
2022-10-05T20:39:40.286Z,99032.75
2022-10-05T20:42:07.726Z,99038.69
2022-10-05T20:44:34.986Z,99047.25
2022-10-05T20:47:01.652Z,99057.06
2022-10-05T20:49:30.223Z,99064.06
2022-10-05T20:51:58.078Z,99075.88
2022-10-05T20:54:25.726Z,99073.22
2022-10-05T20:56:54.776Z,99085.06
2022-10-05T20:59:22.648Z,99087.72
2022-10-05T21:01:49.325Z,99076.25
2022-10-05T21:04:22.123Z,99083.19
2022-10-05T21:06:48.899Z,99082.59
2022-10-05T21:09:19.726Z,99084.63
2022-10-05T21:11:50.158Z,99083.81
2022-10-05T21:14:17.102Z,99089.34
2022-10-05T21:16:45.765Z,99092.41
2022-10-05T21:19:14.250Z,99090.00
2022-10-05T21:21:45.203Z,99093.06
2022-10-05T21:24:13.752Z,99095.47
2022-10-05T21:26:41.695Z,99103.00
2022-10-05T21:29:12.498Z,99102.03
2022-10-05T21:31:40.351Z,99108.97
2022-10-05T21:34:07.288Z,99109.34
2022-10-05T21:36:34.564Z,99112.41
2022-10-05T21:39:01.102Z,99108.09
2022-10-05T21:41:27.614Z,99114.91
2022-10-05T21:43:54.207Z,99111.38
2022-10-05T21:46:25.267Z,99109.53
2022-10-05T21:48:52.814Z,99120.75
2022-10-05T21:51:20.544Z,99122.88
2022-10-05T21:53:51.626Z,99123.03
2022-10-05T21:56:22.248Z,99122.00
2022-10-05T21:58:50.330Z,99125.84
2022-10-05T22:01:22.275Z,99121.38
2022-10-05T22:03:49.227Z,99127.69
2022-10-05T22:06:15.747Z,99117.25
2022-10-05T22:08:42.206Z,99130.06
2022-10-05T22:11:15.284Z,99130.31
2022-10-05T22:13:47.279Z,99130.31
2022-10-05T22:16:15.032Z,99131.72
2022-10-05T22:18:42.502Z,99136.00
2022-10-05T22:21:12.034Z,99133.16
2022-10-05T22:23:43.436Z,99130.44
2022-10-05T22:26:12.513Z,99135.16
2022-10-05T22:28:40.017Z,99133.56
2022-10-05T22:31:09.428Z,99129.25
2022-10-05T22:33:36.966Z,99139.34
2022-10-05T22:36:05.710Z,99145.34
2022-10-05T22:38:32.742Z,99136.53
2022-10-05T22:40:59.556Z,99145.91
2022-10-05T22:43:27.012Z,99142.66
2022-10-05T22:45:54.271Z,99142.88
2022-10-05T22:48:20.809Z,99143.28
2022-10-05T22:50:47.853Z,99159.03
2022-10-05T22:53:14.494Z,99160.44
2022-10-05T22:55:40.994Z,99159.81
2022-10-05T22:58:07.654Z,99160.56
2022-10-05T23:00:56.397Z,99161.16
2022-10-05T23:03:20.647Z,99158.19
2022-10-05T23:05:47.159Z,99162.41
2022-10-05T23:08:13.588Z,99168.34
2022-10-05T23:10:40.116Z,99170.25
2022-10-05T23:13:08.661Z,99173.75
2022-10-05T23:15:35.802Z,99171.31
2022-10-05T23:18:02.264Z,99169.50
2022-10-05T23:20:29.061Z,99183.94
2022-10-05T23:22:55.521Z,99183.75
2022-10-05T23:25:22.214Z,99186.88
2022-10-05T23:27:48.833Z,99189.97
2022-10-05T23:30:15.605Z,99191.38
2022-10-05T23:32:44.097Z,99196.00
2022-10-05T23:35:12.752Z,99204.19
2022-10-05T23:37:44.108Z,99211.28
2022-10-05T23:40:13.115Z,99206.53
2022-10-05T23:42:40.965Z,99197.69
2022-10-05T23:45:10.008Z,99203.00
2022-10-05T23:47:36.486Z,99196.38
2022-10-05T23:50:04.554Z,99207.28
2022-10-05T23:52:31.007Z,99199.41
2022-10-05T23:54:57.524Z,99209.72
2022-10-05T23:57:24.072Z,99207.13
2022-10-05T23:59:50.572Z,99216.03
